createdAt,value
2019-05-12T00:00:32.239Z,0.00
2019-05-12T00:01:32.227Z,0.00
2019-05-12T00:02:32.221Z,0.00
2019-05-12T00:03:32.218Z,0.00
2019-05-12T00:04:32.208Z,0.00
2019-05-12T00:05:32.202Z,0.00
2019-05-12T00:06:32.198Z,0.00
2019-05-12T00:07:32.190Z,0.00
2019-05-12T00:08:32.185Z,0.00
2019-05-12T00:09:32.179Z,0.00
2019-05-12T00:10:32.170Z,0.00
2019-05-12T00:11:32.171Z,0.00
2019-05-12T00:12:32.160Z,0.00
2019-05-12T00:13:32.163Z,0.00
2019-05-12T00:14:32.146Z,0.00
2019-05-12T00:15:32.141Z,0.00
2019-05-12T00:16:32.135Z,0.00
2019-05-12T00:17:32.129Z,0.00
2019-05-12T00:18:32.123Z,0.00
2019-05-12T00:19:32.118Z,0.00
2019-05-12T00:20:32.112Z,0.00
2019-05-12T00:21:32.112Z,0.00
2019-05-12T00:22:32.124Z,0.00
2019-05-12T00:23:32.097Z,0.00
2019-05-12T00:24:32.085Z,0.00
2019-05-12T00:25:32.084Z,0.00
2019-05-12T00:26:32.072Z,0.00
2019-05-12T00:27:32.068Z,0.00
2019-05-12T00:28:32.062Z,0.00
2019-05-12T00:29:32.056Z,0.00
2019-05-12T00:30:32.049Z,0.00
2019-05-12T00:31:32.044Z,0.00
2019-05-12T00:32:32.038Z,0.00
2019-05-12T00:33:32.033Z,0.00
2019-05-12T00:34:32.024Z,0.00
2019-05-12T00:35:32.020Z,0.00
2019-05-12T00:36:32.013Z,0.00
2019-05-12T00:37:32.008Z,0.00
2019-05-12T00:38:32.000Z,0.00
2019-05-12T00:39:31.994Z,0.00
2019-05-12T00:40:31.988Z,0.00
2019-05-12T00:41:31.983Z,0.00
2019-05-12T00:42:31.989Z,0.00
2019-05-12T00:43:31.972Z,0.00
2019-05-12T00:44:31.964Z,0.00
2019-05-12T00:45:31.958Z,0.00
2019-05-12T00:46:31.956Z,0.00
2019-05-12T00:47:31.947Z,0.00
2019-05-12T00:48:31.940Z,0.00
2019-05-12T00:49:31.940Z,0.00
2019-05-12T00:50:31.934Z,0.00
2019-05-12T00:51:31.921Z,0.00
2019-05-12T00:52:31.915Z,0.00
2019-05-12T00:53:39.724Z,0.00
2019-05-12T00:54:31.908Z,0.00
2019-05-12T00:55:31.896Z,0.00
2019-05-12T00:56:31.893Z,0.00
2019-05-12T00:57:31.885Z,0.00
2019-05-12T00:58:31.879Z,0.00
2019-05-12T00:59:31.873Z,0.00
2019-05-12T01:00:31.869Z,0.00
2019-05-12T01:01:31.866Z,0.00
2019-05-12T01:02:31.858Z,0.00
2019-05-12T01:03:31.850Z,0.00
2019-05-12T01:04:31.842Z,0.00
2019-05-12T01:05:31.840Z,0.00
2019-05-12T01:06:31.829Z,0.00
2019-05-12T01:07:31.823Z,0.00
2019-05-12T01:08:31.819Z,0.00
2019-05-12T01:09:31.813Z,0.00
2019-05-12T01:10:31.804Z,0.00
2019-05-12T01:11:31.804Z,0.00
2019-05-12T01:12:31.796Z,0.00
2019-05-12T01:13:31.789Z,0.00
2019-05-12T01:14:31.786Z,0.00
2019-05-12T01:15:31.783Z,0.00
2019-05-12T01:16:31.769Z,0.00
2019-05-12T01:17:31.763Z,0.00
2019-05-12T01:18:31.756Z,0.00
2019-05-12T01:19:31.754Z,0.00
2019-05-12T01:20:31.742Z,0.00
2019-05-12T01:21:31.737Z,0.00
2019-05-12T01:22:31.732Z,0.00
2019-05-12T01:23:31.723Z,0.00
2019-05-12T01:24:31.720Z,0.00
2019-05-12T01:25:31.712Z,0.00
2019-05-12T01:26:31.707Z,0.00
2019-05-12T01:27:31.700Z,0.00
2019-05-12T01:28:31.694Z,0.00
2019-05-12T01:29:31.686Z,0.00
2019-05-12T01:30:31.682Z,0.00
2019-05-12T01:31:31.674Z,0.00
2019-05-12T01:32:31.667Z,0.00
2019-05-12T01:33:31.661Z,0.00
2019-05-12T01:34:31.678Z,0.00
2019-05-12T01:35:31.649Z,0.00
2019-05-12T01:36:31.643Z,0.00
2019-05-12T01:37:31.636Z,0.00
2019-05-12T01:38:31.628Z,0.00
2019-05-12T01:39:31.623Z,0.00
2019-05-12T01:40:31.616Z,0.00
2019-05-12T01:41:31.611Z,0.00
2019-05-12T01:42:31.607Z,0.00
2019-05-12T01:43:31.597Z,0.00
2019-05-12T01:44:31.589Z,0.00
2019-05-12T01:45:31.583Z,0.00
2019-05-12T01:46:31.579Z,0.00
2019-05-12T01:47:31.575Z,0.00
2019-05-12T01:48:31.564Z,0.00
2019-05-12T01:49:31.562Z,0.00
2019-05-12T01:50:31.552Z,0.00
2019-05-12T01:51:31.546Z,0.00
2019-05-12T01:52:31.541Z,0.00
2019-05-12T01:53:31.539Z,0.00
2019-05-12T01:54:31.525Z,0.00
2019-05-12T01:55:31.519Z,0.00
2019-05-12T01:56:31.513Z,0.00
2019-05-12T01:57:31.509Z,0.00
2019-05-12T01:58:31.501Z,0.00
2019-05-12T01:59:31.494Z,0.00
2019-05-12T02:00:31.487Z,0.00
2019-05-12T02:01:31.480Z,0.00
2019-05-12T02:02:31.475Z,0.00
2019-05-12T02:03:31.467Z,0.00
2019-05-12T02:04:31.462Z,0.00
2019-05-12T02:05:31.456Z,0.00
2019-05-12T02:06:31.446Z,0.00
2019-05-12T02:07:31.447Z,0.00
2019-05-12T02:08:31.436Z,0.00
2019-05-12T02:09:31.431Z,0.00
2019-05-12T02:10:31.425Z,0.00
2019-05-12T02:11:31.414Z,0.00
2019-05-12T02:12:31.409Z,0.00
2019-05-12T02:13:31.404Z,0.00
2019-05-12T02:14:31.394Z,0.00
2019-05-12T02:15:31.392Z,0.00
2019-05-12T02:16:31.385Z,0.00
2019-05-12T02:17:31.377Z,0.00
2019-05-12T02:18:31.376Z,0.00
2019-05-12T02:19:31.362Z,0.00
2019-05-12T02:20:31.358Z,0.00
2019-05-12T02:21:31.352Z,0.00
2019-05-12T02:22:31.368Z,0.00
2019-05-12T02:23:31.336Z,0.00
2019-05-12T02:24:31.330Z,0.00
2019-05-12T02:25:31.323Z,0.00
2019-05-12T02:26:31.315Z,0.00
2019-05-12T02:27:31.310Z,0.00
2019-05-12T02:28:31.307Z,0.00
2019-05-12T02:29:31.300Z,0.00
2019-05-12T02:30:31.293Z,0.00
2019-05-12T02:31:31.284Z,0.00
2019-05-12T02:32:43.489Z,0.00
2019-05-12T02:33:31.273Z,0.00
2019-05-12T02:34:31.265Z,0.00
2019-05-12T02:35:31.259Z,0.00
2019-05-12T02:36:33.989Z,0.00
2019-05-12T02:37:31.247Z,0.00
2019-05-12T02:38:32.956Z,0.00
2019-05-12T02:39:31.232Z,0.00
2019-05-12T02:40:34.344Z,0.00
2019-05-12T02:41:34.336Z,0.00
2019-05-12T02:42:34.224Z,0.00
2019-05-12T02:43:31.207Z,0.00
2019-05-12T02:44:31.202Z,0.00
2019-05-12T02:45:31.189Z,0.00
2019-05-12T02:46:34.583Z,4.00
2019-05-12T02:47:34.418Z,4.00
2019-05-12T02:48:31.174Z,4.00
2019-05-12T02:49:34.541Z,0.00
2019-05-12T02:50:34.881Z,4.00
2019-05-12T02:51:31.154Z,4.00
2019-05-12T02:52:31.157Z,4.00
2019-05-12T02:53:31.142Z,4.00
2019-05-12T02:54:50.532Z,8.00
2019-05-12T02:55:34.464Z,8.00
2019-05-12T02:56:31.121Z,4.00
2019-05-12T02:57:34.208Z,8.00
2019-05-12T02:58:33.796Z,8.00
2019-05-12T02:59:34.450Z,12.00
2019-05-12T03:00:31.092Z,16.00
2019-05-12T03:01:31.087Z,16.00
2019-05-12T03:02:31.078Z,16.00
2019-05-12T03:03:31.074Z,20.00
2019-05-12T03:04:31.067Z,20.00
2019-05-12T03:05:31.063Z,24.00
2019-05-12T03:06:31.062Z,28.00
2019-05-12T03:07:34.411Z,28.00
2019-05-12T03:08:31.040Z,32.00
2019-05-12T03:09:34.696Z,36.00
2019-05-12T03:10:31.017Z,36.00
2019-05-12T03:11:31.019Z,40.00
2019-05-12T03:12:34.255Z,44.00
2019-05-12T03:13:34.386Z,48.00
2019-05-12T03:14:35.782Z,52.00
2019-05-12T03:15:30.993Z,48.00
2019-05-12T03:16:30.987Z,52.00
2019-05-12T03:17:30.986Z,56.00
2019-05-12T03:18:34.531Z,64.00
2019-05-12T03:19:30.970Z,68.00
2019-05-12T03:20:30.960Z,68.00
2019-05-12T03:21:30.953Z,76.00
2019-05-12T03:22:30.950Z,76.00
2019-05-12T03:23:30.942Z,84.00
2019-05-12T03:24:34.036Z,88.00
2019-05-12T03:25:30.927Z,92.00
2019-05-12T03:26:30.918Z,100.00
2019-05-12T03:27:30.919Z,104.00
2019-05-12T03:28:30.906Z,112.00
2019-05-12T03:29:34.123Z,120.00
2019-05-12T03:30:30.899Z,128.00
2019-05-12T03:31:32.094Z,136.00
2019-05-12T03:32:30.895Z,144.00
2019-05-12T03:33:35.896Z,152.00
2019-05-12T03:34:30.864Z,164.00
2019-05-12T03:35:39.453Z,176.00
2019-05-12T03:36:34.741Z,184.00
2019-05-12T03:37:31.474Z,200.00
2019-05-12T03:38:30.838Z,212.00
2019-05-12T03:39:34.231Z,224.00
2019-05-12T03:40:30.829Z,240.00
2019-05-12T03:41:30.818Z,252.00
2019-05-12T03:42:30.814Z,268.00
2019-05-12T03:43:30.807Z,280.00
2019-05-12T03:44:30.797Z,296.00
2019-05-12T03:45:30.792Z,312.00
2019-05-12T03:46:30.785Z,328.00
2019-05-12T03:47:30.781Z,344.00
2019-05-12T03:48:30.771Z,364.00
2019-05-12T03:49:30.764Z,380.00
2019-05-12T03:50:30.757Z,400.00
2019-05-12T03:51:30.752Z,420.00
2019-05-12T03:52:30.742Z,432.00
2019-05-12T03:53:30.735Z,456.00
2019-05-12T03:54:30.729Z,472.00
2019-05-12T03:55:36.411Z,496.00
2019-05-12T03:56:30.717Z,516.00
2019-05-12T03:57:34.269Z,544.00
2019-05-12T03:58:30.707Z,568.00
2019-05-12T03:59:30.696Z,592.00
2019-05-12T04:00:30.687Z,620.00
2019-05-12T04:01:30.690Z,648.00
2019-05-12T04:02:30.675Z,680.00
2019-05-12T04:03:30.667Z,708.00
2019-05-12T04:04:30.661Z,740.00
2019-05-12T04:05:30.655Z,768.00
2019-05-12T04:06:30.647Z,800.00
2019-05-12T04:07:30.639Z,832.00
2019-05-12T04:08:30.640Z,864.00
2019-05-12T04:09:30.643Z,900.00
2019-05-12T04:10:30.621Z,928.00
2019-05-12T04:11:30.613Z,964.00
2019-05-12T04:12:30.608Z,1000.00
2019-05-12T04:13:30.606Z,1036.00
2019-05-12T04:14:30.594Z,1072.00
2019-05-12T04:15:30.613Z,1108.00
2019-05-12T04:16:30.599Z,1144.00
2019-05-12T04:17:30.579Z,1184.00
2019-05-12T04:18:30.578Z,1220.00
2019-05-12T04:19:30.560Z,1252.00
2019-05-12T04:20:30.555Z,1288.00
2019-05-12T04:21:30.551Z,1320.00
2019-05-12T04:22:30.541Z,1352.00
2019-05-12T04:23:30.534Z,1384.00
2019-05-12T04:24:30.524Z,1412.00
2019-05-12T04:25:46.530Z,1448.00
2019-05-12T04:26:30.513Z,1480.00
2019-05-12T04:27:30.507Z,1516.00
2019-05-12T04:28:30.499Z,1556.00
2019-05-12T04:29:30.497Z,1592.00
2019-05-12T04:30:30.487Z,1620.00
2019-05-12T04:31:30.479Z,1656.00
2019-05-12T04:32:30.472Z,1704.00
2019-05-12T04:33:30.464Z,1764.00
2019-05-12T04:34:30.457Z,1832.00
2019-05-12T04:35:30.450Z,1904.00
2019-05-12T04:36:30.447Z,1968.00
2019-05-12T04:37:30.455Z,2016.00
2019-05-12T04:38:30.439Z,2060.00
2019-05-12T04:39:30.425Z,2112.00
2019-05-12T04:40:30.421Z,2168.00
2019-05-12T04:41:30.413Z,2240.00
2019-05-12T04:42:30.408Z,2304.00
2019-05-12T04:43:30.396Z,2368.00
2019-05-12T04:44:30.391Z,2420.00
2019-05-12T04:45:30.394Z,2472.00
2019-05-12T04:46:30.377Z,2520.00
2019-05-12T04:47:30.371Z,2568.00
2019-05-12T04:48:30.364Z,2600.00
2019-05-12T04:49:30.356Z,2632.00
2019-05-12T04:50:30.352Z,2676.00
2019-05-12T04:51:30.345Z,2748.00
2019-05-12T04:52:30.338Z,2812.00
2019-05-12T04:53:30.335Z,2860.00
2019-05-12T04:54:30.325Z,2900.00
2019-05-12T04:55:30.319Z,2900.00
2019-05-12T04:56:30.313Z,2908.00
2019-05-12T04:57:30.306Z,2924.00
2019-05-12T04:58:30.302Z,2980.00
2019-05-12T04:59:30.297Z,3096.00
2019-05-12T05:00:30.286Z,3204.00
2019-05-12T05:01:30.281Z,3220.00
2019-05-12T05:02:30.274Z,3292.00
2019-05-12T05:03:30.266Z,3424.00
2019-05-12T05:04:30.258Z,3640.00
2019-05-12T05:05:30.254Z,3592.00
2019-05-12T05:06:30.245Z,3588.00
2019-05-12T05:07:30.233Z,3676.00
2019-05-12T05:08:30.233Z,3692.00
2019-05-12T05:09:30.227Z,3804.00
2019-05-12T05:10:30.224Z,3684.00
2019-05-12T05:11:30.211Z,3736.00
2019-05-12T05:12:30.209Z,3776.00
2019-05-12T05:13:30.199Z,3768.00
2019-05-12T05:14:30.194Z,3812.00
2019-05-12T05:15:30.193Z,3836.00
2019-05-12T05:16:30.184Z,3844.00
2019-05-12T05:17:30.186Z,3808.00
2019-05-12T05:18:30.168Z,3832.00
2019-05-12T05:19:30.161Z,3860.00
2019-05-12T05:20:30.155Z,3764.00
2019-05-12T05:21:30.148Z,3760.00
2019-05-12T05:22:30.140Z,3796.00
2019-05-12T05:23:30.141Z,3848.00
2019-05-12T05:24:30.140Z,3904.00
2019-05-12T05:25:30.123Z,3976.00
2019-05-12T05:26:30.117Z,4048.00
2019-05-12T05:27:30.110Z,4060.00
2019-05-12T05:28:30.106Z,4084.00
2019-05-12T05:29:30.098Z,4112.00
2019-05-12T05:30:30.094Z,4108.00
2019-05-12T05:31:30.086Z,4144.00
2019-05-12T05:32:30.078Z,4228.00
2019-05-12T05:33:30.081Z,4328.00
2019-05-12T05:34:30.072Z,4400.00
2019-05-12T05:35:35.168Z,4552.00
2019-05-12T05:36:30.052Z,4732.00
2019-05-12T05:37:30.817Z,4872.00
2019-05-12T05:38:30.040Z,4976.00
2019-05-12T05:39:30.033Z,5040.00
2019-05-12T05:40:30.384Z,5076.00
2019-05-12T05:41:30.023Z,5076.00
2019-05-12T05:42:32.765Z,5036.00
2019-05-12T05:43:30.010Z,4976.00
2019-05-12T05:44:36.243Z,4928.00
2019-05-12T05:45:30.003Z,4940.00
2019-05-12T05:46:29.998Z,4988.00
2019-05-12T05:47:29.984Z,5056.00
2019-05-12T05:48:32.155Z,5140.00
2019-05-12T05:49:29.976Z,5340.00
2019-05-12T05:50:29.966Z,5756.00
2019-05-12T05:51:29.964Z,6072.00
2019-05-12T05:52:33.114Z,6880.00
2019-05-12T05:53:29.953Z,7744.00
2019-05-12T05:54:35.113Z,7780.00
2019-05-12T05:55:29.936Z,9204.00
2019-05-12T05:56:39.685Z,13404.00
2019-05-12T05:57:29.975Z,16192.00
2019-05-12T05:58:29.919Z,19040.00
2019-05-12T05:59:31.828Z,18688.00
2019-05-12T06:00:29.904Z,20896.00
2019-05-12T06:01:29.901Z,23904.00
2019-05-12T06:02:32.101Z,25888.00
2019-05-12T06:03:29.889Z,25440.00
2019-05-12T06:04:29.883Z,26080.00
2019-05-12T06:05:31.023Z,28320.00
2019-05-12T06:06:29.870Z,29888.00
2019-05-12T06:07:34.967Z,30208.00
2019-05-12T06:08:29.870Z,31360.00
2019-05-12T06:09:29.856Z,32864.00
2019-05-12T06:10:36.113Z,33184.00
2019-05-12T06:11:29.846Z,32032.00
2019-05-12T06:12:29.842Z,31296.00
2019-05-12T06:13:31.779Z,31648.00
2019-05-12T06:14:29.833Z,32576.00
2019-05-12T06:15:34.698Z,32416.00
2019-05-12T06:16:29.825Z,32160.00
2019-05-12T06:17:29.823Z,32992.00
2019-05-12T06:18:29.818Z,31840.00
2019-05-12T06:19:29.815Z,28640.00
2019-05-12T06:20:29.813Z,28128.00
2019-05-12T06:21:36.829Z,27584.00
2019-05-12T06:22:29.808Z,26272.00
2019-05-12T06:23:34.937Z,24576.00
2019-05-12T06:24:29.801Z,23104.00
2019-05-12T06:25:41.128Z,23360.00
2019-05-12T06:26:33.304Z,26944.00
2019-05-12T06:27:32.705Z,23456.00
2019-05-12T06:28:31.065Z,19680.00
2019-05-12T06:29:29.795Z,21728.00
2019-05-12T06:30:29.785Z,25440.00
2019-05-12T06:31:30.165Z,26080.00
2019-05-12T06:32:29.781Z,22080.00
2019-05-12T06:33:31.436Z,24032.00
2019-05-12T06:34:29.776Z,15584.00
2019-05-12T06:35:30.878Z,19328.00
2019-05-12T06:36:29.769Z,21408.00
2019-05-12T06:37:29.769Z,22848.00
2019-05-12T06:38:31.115Z,22656.00
2019-05-12T06:39:29.765Z,21760.00
2019-05-12T06:40:30.925Z,17184.00
2019-05-12T06:41:29.764Z,18816.00
2019-05-12T06:42:29.759Z,25312.00
2019-05-12T06:43:35.277Z,21536.00
2019-05-12T06:44:29.752Z,29280.00
2019-05-12T06:45:33.989Z,19392.00
2019-05-12T06:46:29.745Z,25056.00
2019-05-12T06:47:29.741Z,19168.00
2019-05-12T06:48:30.333Z,26816.00
2019-05-12T06:49:29.744Z,30848.00
2019-05-12T06:50:37.005Z,28384.00
2019-05-12T06:51:29.731Z,36576.00
2019-05-12T06:52:29.732Z,29856.00
2019-05-12T06:53:31.165Z,24896.00
2019-05-12T06:54:29.725Z,16160.00
2019-05-12T06:55:34.511Z,22944.00
2019-05-12T06:56:29.722Z,27904.00
2019-05-12T06:57:29.720Z,28224.00
2019-05-12T06:58:32.077Z,36320.00
2019-05-12T06:59:29.713Z,44288.00
2019-05-12T07:00:30.948Z,41152.00
2019-05-12T07:01:29.709Z,41568.00
2019-05-12T07:02:30.313Z,43392.00
2019-05-12T07:03:31.491Z,41792.00
2019-05-12T07:04:29.701Z,44064.00
2019-05-12T07:05:35.891Z,47712.00
2019-05-12T07:06:29.696Z,49056.00
2019-05-12T07:07:33.411Z,49504.00
2019-05-12T07:08:32.922Z,45952.00
2019-05-12T07:09:32.530Z,44576.00
2019-05-12T07:10:43.372Z,46784.00
2019-05-12T07:11:41.506Z,47264.00
2019-05-12T07:12:36.485Z,48384.00
2019-05-12T07:13:29.687Z,49184.00
2019-05-12T07:14:29.679Z,52416.00
2019-05-12T07:15:35.811Z,48960.00
2019-05-12T07:16:30.366Z,51040.00
2019-05-12T07:17:29.679Z,54720.00
2019-05-12T07:18:32.392Z,51456.00
2019-05-12T07:19:29.917Z,48928.00
2019-05-12T07:20:35.643Z,49024.00
2019-05-12T07:21:29.695Z,48160.00
2019-05-12T07:22:31.755Z,48832.00
2019-05-12T07:23:30.183Z,51616.00
2019-05-12T07:24:29.670Z,48032.00
2019-05-12T07:25:33.544Z,45376.00
2019-05-12T07:26:29.664Z,50272.00
2019-05-12T07:27:36.742Z,51232.00
2019-05-12T07:28:30.406Z,51808.00
2019-05-12T07:29:29.662Z,53536.00
2019-05-12T07:30:31.880Z,53248.00
2019-05-12T07:31:29.667Z,51424.00
2019-05-12T07:32:29.657Z,50208.00
2019-05-12T07:33:35.269Z,49376.00
2019-05-12T07:34:29.658Z,50720.00
2019-05-12T07:35:29.656Z,52000.00
2019-05-12T07:36:29.656Z,59296.00
2019-05-12T07:37:30.089Z,62656.00
2019-05-12T07:38:29.683Z,60704.00
2019-05-12T07:39:29.655Z,59616.00
2019-05-12T07:40:30.196Z,54976.00
2019-05-12T07:41:29.655Z,52000.00
2019-05-12T07:42:31.127Z,53664.00
2019-05-12T07:43:29.654Z,57088.00
2019-05-12T07:44:32.137Z,59712.00
2019-05-12T07:45:29.655Z,62112.00
2019-05-12T07:46:29.651Z,62912.00
2019-05-12T07:47:29.652Z,63840.00
2019-05-12T07:48:29.654Z,63232.00
2019-05-12T07:49:37.805Z,56096.00
2019-05-12T07:50:29.652Z,51680.00
2019-05-12T07:51:30.388Z,57024.00
2019-05-12T07:52:29.656Z,64448.00
2019-05-12T07:53:29.656Z,67840.00
2019-05-12T07:54:34.542Z,71456.00
2019-05-12T07:55:29.654Z,68896.00
2019-05-12T07:56:32.886Z,61728.00
2019-05-12T07:57:29.655Z,59424.00
2019-05-12T07:58:29.660Z,65792.00
2019-05-12T07:59:38.834Z,68608.00
2019-05-12T08:00:29.656Z,62560.00
2019-05-12T08:01:29.658Z,59520.00
2019-05-12T08:02:31.793Z,57440.00
2019-05-12T08:03:29.658Z,55392.00
2019-05-12T08:04:31.718Z,59904.00
2019-05-12T08:05:29.660Z,63136.00
2019-05-12T08:06:32.591Z,58432.00
2019-05-12T08:07:30.021Z,55936.00
2019-05-12T08:08:29.661Z,64608.00
2019-05-12T08:09:32.383Z,72768.00
2019-05-12T08:10:29.662Z,69952.00
2019-05-12T08:11:36.650Z,61120.00
2019-05-12T08:12:29.664Z,57920.00
2019-05-12T08:13:31.292Z,65568.00
2019-05-12T08:14:29.669Z,72448.00
2019-05-12T08:15:29.667Z,65664.00
2019-05-12T08:16:33.647Z,52480.00
2019-05-12T08:17:29.666Z,49504.00
2019-05-12T08:18:30.699Z,54592.00
2019-05-12T08:19:29.673Z,63392.00
2019-05-12T08:20:29.675Z,71104.00
2019-05-12T08:21:34.733Z,70080.00
2019-05-12T08:22:29.685Z,66720.00
2019-05-12T08:23:29.674Z,61984.00
2019-05-12T08:24:29.675Z,47520.00
2019-05-12T08:25:29.678Z,52480.00
2019-05-12T08:26:29.677Z,72736.00
2019-05-12T08:27:29.677Z,33088.00
2019-05-12T08:28:35.713Z,59008.00
2019-05-12T08:29:29.684Z,48672.00
2019-05-12T08:30:29.680Z,59040.00
2019-05-12T08:31:32.598Z,59744.00
2019-05-12T08:32:29.759Z,51104.00
2019-05-12T08:33:29.687Z,45120.00
2019-05-12T08:34:29.689Z,41696.00
2019-05-12T08:35:34.638Z,36384.00
2019-05-12T08:36:29.689Z,46880.00
2019-05-12T08:37:29.691Z,36768.00
2019-05-12T08:38:29.687Z,36128.00
2019-05-12T08:39:29.692Z,38848.00
2019-05-12T08:40:29.694Z,32192.00
2019-05-12T08:41:29.699Z,41024.00
2019-05-12T08:42:29.698Z,43648.00
2019-05-12T08:43:29.701Z,57824.00
2019-05-12T08:44:33.849Z,65600.00
2019-05-12T08:45:33.972Z,60992.00
2019-05-12T08:46:29.709Z,60832.00
2019-05-12T08:47:35.531Z,63008.00
2019-05-12T08:48:29.703Z,60928.00
2019-05-12T08:49:34.088Z,54656.00
2019-05-12T08:50:31.472Z,31904.00
2019-05-12T08:51:29.705Z,11960.00
2019-05-12T08:52:30.487Z,8920.00
2019-05-12T08:53:29.708Z,7908.00
2019-05-12T08:54:29.707Z,7532.00
2019-05-12T08:55:31.512Z,7420.00
2019-05-12T08:56:29.708Z,7528.00
2019-05-12T08:57:34.796Z,7664.00
2019-05-12T08:58:34.169Z,7612.00
2019-05-12T08:59:29.714Z,7604.00
2019-05-12T09:00:29.715Z,7516.00
2019-05-12T09:01:30.844Z,7668.00
2019-05-12T09:02:29.723Z,7744.00
2019-05-12T09:03:30.478Z,7888.00
2019-05-12T09:04:29.715Z,7648.00
2019-05-12T09:05:34.524Z,7292.00
2019-05-12T09:06:29.714Z,6904.00
2019-05-12T09:07:30.361Z,6680.00
2019-05-12T09:08:29.773Z,6540.00
2019-05-12T09:09:29.713Z,6416.00
2019-05-12T09:10:29.723Z,6336.00
2019-05-12T09:11:29.712Z,6248.00
2019-05-12T09:12:29.707Z,6220.00
2019-05-12T09:13:29.711Z,6108.00
2019-05-12T09:14:35.533Z,6072.00
2019-05-12T09:15:29.707Z,5644.00
2019-05-12T09:16:29.705Z,5520.00
2019-05-12T09:17:29.704Z,6044.00
2019-05-12T09:18:35.058Z,6592.00
2019-05-12T09:19:29.700Z,6736.00
2019-05-12T09:20:29.700Z,6464.00
2019-05-12T09:21:36.606Z,6296.00
2019-05-12T09:22:29.694Z,6104.00
2019-05-12T09:23:32.704Z,6052.00
2019-05-12T09:24:29.693Z,6140.00
2019-05-12T09:25:29.688Z,6232.00
2019-05-12T09:26:29.685Z,6116.00
2019-05-12T09:27:29.685Z,6012.00
2019-05-12T09:28:42.895Z,5860.00
2019-05-12T09:29:29.743Z,5588.00
2019-05-12T09:30:29.727Z,5424.00
2019-05-12T09:31:29.838Z,5368.00
2019-05-12T09:32:29.672Z,5316.00
2019-05-12T09:33:31.991Z,5412.00
2019-05-12T09:34:29.666Z,5584.00
2019-05-12T09:35:34.895Z,5816.00
2019-05-12T09:36:29.663Z,5964.00
2019-05-12T09:37:30.887Z,5836.00
2019-05-12T09:38:29.652Z,5668.00
2019-05-12T09:39:36.432Z,5496.00
2019-05-12T09:40:29.653Z,5196.00
2019-05-12T09:41:35.944Z,4816.00
2019-05-12T09:42:30.149Z,4580.00
2019-05-12T09:43:29.644Z,4488.00
2019-05-12T09:44:30.609Z,4420.00
2019-05-12T09:45:29.647Z,4528.00
2019-05-12T09:46:34.302Z,4792.00
2019-05-12T09:47:29.730Z,4752.00
2019-05-12T09:48:29.630Z,4440.00
2019-05-12T09:49:33.336Z,4128.00
2019-05-12T09:50:29.625Z,3816.00
2019-05-12T09:51:33.007Z,3648.00
2019-05-12T09:52:29.614Z,3524.00
2019-05-12T09:53:29.611Z,3520.00
2019-05-12T09:54:35.269Z,3544.00
2019-05-12T09:55:29.634Z,3520.00
2019-05-12T09:56:29.607Z,3412.00
2019-05-12T09:57:34.796Z,3416.00
2019-05-12T09:58:29.598Z,3484.00
2019-05-12T09:59:29.593Z,3520.00
2019-05-12T10:00:30.408Z,3644.00
2019-05-12T10:01:35.384Z,3824.00
2019-05-12T10:02:29.589Z,3660.00
2019-05-12T10:03:30.864Z,3432.00
2019-05-12T10:04:29.583Z,3352.00
2019-05-12T10:05:30.542Z,3280.00
2019-05-12T10:06:29.567Z,3196.00
2019-05-12T10:07:29.569Z,3328.00
2019-05-12T10:08:35.548Z,3400.00
2019-05-12T10:09:29.580Z,3384.00
2019-05-12T10:10:38.182Z,3248.00
2019-05-12T10:11:29.567Z,3152.00
2019-05-12T10:12:30.046Z,3088.00
2019-05-12T10:13:30.342Z,3052.00
2019-05-12T10:14:29.552Z,3024.00
2019-05-12T10:15:29.544Z,2992.00
2019-05-12T10:16:29.546Z,2988.00
2019-05-12T10:17:30.293Z,2992.00
2019-05-12T10:18:29.533Z,3008.00
2019-05-12T10:19:29.533Z,3008.00
2019-05-12T10:20:35.225Z,3000.00
2019-05-12T10:21:29.523Z,2972.00
2019-05-12T10:22:30.100Z,2988.00
2019-05-12T10:23:29.519Z,3012.00
2019-05-12T10:24:32.453Z,3032.00
2019-05-12T10:25:30.729Z,3068.00
2019-05-12T10:26:29.509Z,3068.00
2019-05-12T10:27:31.886Z,3060.00
2019-05-12T10:28:29.505Z,3048.00
2019-05-12T10:29:30.972Z,3004.00
2019-05-12T10:30:29.495Z,2948.00
2019-05-12T10:31:34.534Z,2876.00
2019-05-12T10:32:29.488Z,2840.00
2019-05-12T10:33:29.485Z,2904.00
2019-05-12T10:34:34.838Z,2968.00
2019-05-12T10:35:29.479Z,2960.00
2019-05-12T10:36:29.552Z,2912.00
2019-05-12T10:37:29.633Z,2880.00
2019-05-12T10:38:29.468Z,2912.00
2019-05-12T10:39:29.470Z,3152.00
2019-05-12T10:40:29.462Z,3604.00
2019-05-12T10:41:29.459Z,4200.00
2019-05-12T10:42:29.454Z,5040.00
2019-05-12T10:43:29.452Z,5428.00
2019-05-12T10:44:39.182Z,5028.00
2019-05-12T10:45:29.446Z,4368.00
2019-05-12T10:46:29.447Z,3740.00
2019-05-12T10:47:29.439Z,3520.00
2019-05-12T10:48:29.438Z,3264.00
2019-05-12T10:49:29.436Z,3088.00
2019-05-12T10:50:29.431Z,2964.00
2019-05-12T10:51:29.431Z,2904.00
2019-05-12T10:52:34.271Z,3036.00
2019-05-12T10:53:29.421Z,2936.00
2019-05-12T10:54:29.420Z,2716.00
2019-05-12T10:55:29.414Z,2752.00
2019-05-12T10:56:29.418Z,2660.00
2019-05-12T10:57:29.407Z,2656.00
2019-05-12T10:58:29.408Z,2580.00
2019-05-12T10:59:33.144Z,2628.00
2019-05-12T11:00:29.406Z,2636.00
2019-05-12T11:01:29.396Z,2660.00
2019-05-12T11:02:30.634Z,2648.00
2019-05-12T11:03:29.388Z,2676.00
2019-05-12T11:04:36.821Z,2696.00
2019-05-12T11:05:29.383Z,2708.00
2019-05-12T11:06:29.377Z,2744.00
2019-05-12T11:07:29.991Z,2700.00
2019-05-12T11:08:29.372Z,2708.00
2019-05-12T11:09:31.684Z,2716.00
2019-05-12T11:10:29.367Z,2708.00
2019-05-12T11:11:32.992Z,2700.00
2019-05-12T11:12:29.400Z,2672.00
2019-05-12T11:13:29.361Z,2640.00
2019-05-12T11:14:30.512Z,2600.00
2019-05-12T11:15:29.355Z,2588.00
2019-05-12T11:16:31.128Z,2552.00
2019-05-12T11:17:29.345Z,2528.00
2019-05-12T11:18:30.614Z,2488.00
2019-05-12T11:19:29.344Z,2484.00
2019-05-12T11:20:29.337Z,2540.00
2019-05-12T11:21:29.333Z,2576.00
2019-05-12T11:22:29.330Z,2560.00
2019-05-12T11:23:29.327Z,2568.00
2019-05-12T11:24:29.327Z,2576.00
2019-05-12T11:25:29.321Z,2588.00
2019-05-12T11:26:29.324Z,2784.00
2019-05-12T11:27:29.314Z,2868.00
2019-05-12T11:28:29.312Z,2932.00
2019-05-12T11:29:42.502Z,3020.00
2019-05-12T11:30:29.305Z,3084.00
2019-05-12T11:31:29.302Z,3072.00
2019-05-12T11:32:34.683Z,3020.00
2019-05-12T11:33:29.301Z,2920.00
2019-05-12T11:34:29.298Z,2808.00
2019-05-12T11:35:29.293Z,2712.00
2019-05-12T11:36:29.315Z,2684.00
2019-05-12T11:37:29.290Z,2620.00
2019-05-12T11:38:29.281Z,2580.00
2019-05-12T11:39:30.578Z,2536.00
2019-05-12T11:40:29.276Z,2480.00
2019-05-12T11:41:29.277Z,2444.00
2019-05-12T11:42:29.270Z,2408.00
2019-05-12T11:43:29.899Z,2380.00
2019-05-12T11:44:29.264Z,2376.00
2019-05-12T11:45:29.261Z,2340.00
2019-05-12T11:46:29.260Z,2304.00
2019-05-12T11:47:29.256Z,2292.00
2019-05-12T11:48:29.252Z,2272.00
2019-05-12T11:49:29.250Z,2272.00
2019-05-12T11:50:29.246Z,2256.00
2019-05-12T11:51:30.677Z,2256.00
2019-05-12T11:52:29.244Z,2248.00
2019-05-12T11:53:31.151Z,2264.00
2019-05-12T11:54:29.234Z,2256.00
2019-05-12T11:55:31.592Z,2260.00
2019-05-12T11:56:29.232Z,2252.00
2019-05-12T11:57:30.404Z,2240.00
2019-05-12T11:58:29.227Z,2236.00
2019-05-12T11:59:29.223Z,2080.00
2019-05-12T12:00:29.221Z,1936.00
2019-05-12T12:01:29.217Z,1764.00
2019-05-12T12:02:30.709Z,2212.00
2019-05-12T12:03:29.211Z,2196.00
2019-05-12T12:04:29.208Z,2212.00
2019-05-12T12:05:29.206Z,2212.00
2019-05-12T12:06:29.202Z,2200.00
2019-05-12T12:07:29.198Z,2204.00
2019-05-12T12:08:35.707Z,2144.00
2019-05-12T12:09:29.198Z,2128.00
2019-05-12T12:10:34.102Z,2112.00
2019-05-12T12:11:29.191Z,2160.00
2019-05-12T12:12:29.185Z,2236.00
2019-05-12T12:13:30.114Z,2336.00
2019-05-12T12:14:31.708Z,2440.00
2019-05-12T12:15:30.401Z,2492.00
2019-05-12T12:16:29.174Z,2500.00
2019-05-12T12:17:35.085Z,2476.00
2019-05-12T12:18:29.171Z,2448.00
2019-05-12T12:19:37.800Z,2436.00